sensor_id;sensor_type;location;lat;lon;timestamp;P1;durP1;ratioP1;P2;durP2;ratioP2
74259;SDS011;62630;55.874;37.516;2023-02-17T00:00:08;5.70;;;3.90;;
74259;SDS011;62630;55.874;37.516;2023-02-17T00:02:35;4.70;;;3.33;;
74259;SDS011;62630;55.874;37.516;2023-02-17T00:05:02;9.32;;;4.65;;
74259;SDS011;62630;55.874;37.516;2023-02-17T00:07:29;5.50;;;3.63;;
74259;SDS011;62630;55.874;37.516;2023-02-17T00:09:56;5.90;;;4.18;;
74259;SDS011;62630;55.874;37.516;2023-02-17T00:12:22;8.30;;;4.30;;
74259;SDS011;62630;55.874;37.516;2023-02-17T00:14:48;7.85;;;5.03;;
74259;SDS011;62630;55.874;37.516;2023-02-17T00:17:13;7.68;;;4.13;;
74259;SDS011;62630;55.874;37.516;2023-02-17T00:19:39;7.60;;;4.53;;
74259;SDS011;62630;55.874;37.516;2023-02-17T00:22:04;7.70;;;4.30;;
74259;SDS011;62630;55.874;37.516;2023-02-17T00:24:33;9.50;;;3.97;;
74259;SDS011;62630;55.874;37.516;2023-02-17T00:27:01;5.50;;;3.47;;
74259;SDS011;62630;55.874;37.516;2023-02-17T00:29:27;4.57;;;3.67;;
74259;SDS011;62630;55.874;37.516;2023-02-17T00:31:53;6.38;;;4.03;;
74259;SDS011;62630;55.874;37.516;2023-02-17T00:34:19;7.50;;;4.35;;
74259;SDS011;62630;55.874;37.516;2023-02-17T00:36:45;8.20;;;4.25;;
74259;SDS011;62630;55.874;37.516;2023-02-17T00:39:11;8.25;;;4.32;;
74259;SDS011;62630;55.874;37.516;2023-02-17T00:41:39;6.95;;;3.83;;
74259;SDS011;62630;55.874;37.516;2023-02-17T00:44:04;7.03;;;3.85;;
74259;SDS011;62630;55.874;37.516;2023-02-17T00:46:30;6.13;;;3.75;;
74259;SDS011;62630;55.874;37.516;2023-02-17T00:48:56;5.30;;;4.07;;
74259;SDS011;62630;55.874;37.516;2023-02-17T00:51:21;6.65;;;4.10;;
74259;SDS011;62630;55.874;37.516;2023-02-17T00:53:47;6.95;;;3.90;;
74259;SDS011;62630;55.874;37.516;2023-02-17T00:56:13;6.13;;;3.88;;
74259;SDS011;62630;55.874;37.516;2023-02-17T00:58:39;7.60;;;4.30;;
74259;SDS011;62630;55.874;37.516;2023-02-17T01:01:05;6.03;;;3.65;;
74259;SDS011;62630;55.874;37.516;2023-02-17T01:03:32;6.32;;;4.47;;
74259;SDS011;62630;55.874;37.516;2023-02-17T01:05:58;7.65;;;4.30;;
74259;SDS011;62630;55.874;37.516;2023-02-17T01:08:23;5.85;;;4.07;;
74259;SDS011;62630;55.874;37.516;2023-02-17T01:10:50;6.95;;;4.20;;
74259;SDS011;62630;55.874;37.516;2023-02-17T01:13:17;7.38;;;4.43;;
74259;SDS011;62630;55.874;37.516;2023-02-17T01:15:44;7.65;;;4.18;;
74259;SDS011;62630;55.874;37.516;2023-02-17T01:18:15;8.13;;;4.22;;
74259;SDS011;62630;55.874;37.516;2023-02-17T01:20:42;6.47;;;4.28;;
74259;SDS011;62630;55.874;37.516;2023-02-17T01:23:08;8.98;;;4.57;;
74259;SDS011;62630;55.874;37.516;2023-02-17T01:25:35;8.75;;;4.88;;
74259;SDS011;62630;55.874;37.516;2023-02-17T01:28:02;5.55;;;3.97;;
74259;SDS011;62630;55.874;37.516;2023-02-17T01:30:27;7.78;;;5.00;;
74259;SDS011;62630;55.874;37.516;2023-02-17T01:32:53;8.02;;;4.88;;
74259;SDS011;62630;55.874;37.516;2023-02-17T01:35:18;6.60;;;4.93;;
74259;SDS011;62630;55.874;37.516;2023-02-17T01:37:44;7.65;;;4.72;;
74259;SDS011;62630;55.874;37.516;2023-02-17T01:40:10;8.20;;;5.15;;
74259;SDS011;62630;55.874;37.516;2023-02-17T01:42:38;9.88;;;4.60;;
74259;SDS011;62630;55.874;37.516;2023-02-17T01:47:41;7.93;;;4.35;;
74259;SDS011;62630;55.874;37.516;2023-02-17T01:50:16;7.57;;;4.47;;
74259;SDS011;62630;55.874;37.516;2023-02-17T01:52:46;9.55;;;4.88;;
74259;SDS011;62630;55.874;37.516;2023-02-17T01:55:13;7.20;;;4.63;;
74259;SDS011;62630;55.874;37.516;2023-02-17T01:57:42;7.60;;;5.25;;
74259;SDS011;62630;55.874;37.516;2023-02-17T02:00:10;8.20;;;5.20;;
74259;SDS011;62630;55.874;37.516;2023-02-17T02:02:38;7.35;;;5.30;;
74259;SDS011;62630;55.874;37.516;2023-02-17T02:05:05;8.57;;;5.00;;
74259;SDS011;62630;55.874;37.516;2023-02-17T02:07:32;9.68;;;5.00;;
74259;SDS011;62630;55.874;37.516;2023-02-17T02:10:01;6.47;;;4.13;;
74259;SDS011;62630;55.874;37.516;2023-02-17T02:12:29;8.65;;;4.90;;
74259;SDS011;62630;55.874;37.516;2023-02-17T02:14:59;9.38;;;4.97;;
74259;SDS011;62630;55.874;37.516;2023-02-17T02:25:31;7.47;;;4.95;;
74259;SDS011;62630;55.874;37.516;2023-02-17T02:34:16;6.60;;;4.43;;
74259;SDS011;62630;55.874;37.516;2023-02-17T02:36:50;6.32;;;3.72;;
74259;SDS011;62630;55.874;37.516;2023-02-17T02:39:25;7.50;;;4.13;;
74259;SDS011;62630;55.874;37.516;2023-02-17T02:41:58;6.03;;;4.03;;
74259;SDS011;62630;55.874;37.516;2023-02-17T02:44:27;6.07;;;4.20;;
74259;SDS011;62630;55.874;37.516;2023-02-17T02:46:57;6.25;;;3.97;;
74259;SDS011;62630;55.874;37.516;2023-02-17T02:49:27;6.18;;;4.40;;
74259;SDS011;62630;55.874;37.516;2023-02-17T02:57:37;8.73;;;4.57;;
74259;SDS011;62630;55.874;37.516;2023-02-17T03:00:23;8.98;;;4.75;;
74259;SDS011;62630;55.874;37.516;2023-02-17T03:02:50;9.55;;;5.10;;
74259;SDS011;62630;55.874;37.516;2023-02-17T03:08:36;9.57;;;4.90;;
74259;SDS011;62630;55.874;37.516;2023-02-17T03:11:06;8.18;;;4.63;;
74259;SDS011;62630;55.874;37.516;2023-02-17T03:13:32;8.45;;;4.40;;
74259;SDS011;62630;55.874;37.516;2023-02-17T03:16:06;6.88;;;4.45;;
74259;SDS011;62630;55.874;37.516;2023-02-17T03:18:33;7.53;;;4.50;;
74259;SDS011;62630;55.874;37.516;2023-02-17T03:21:04;7.18;;;4.65;;
74259;SDS011;62630;55.874;37.516;2023-02-17T03:23:35;6.93;;;4.35;;
74259;SDS011;62630;55.874;37.516;2023-02-17T03:26:01;6.70;;;4.40;;
74259;SDS011;62630;55.874;37.516;2023-02-17T03:28:27;7.50;;;4.57;;
74259;SDS011;62630;55.874;37.516;2023-02-17T03:30:52;6.50;;;4.50;;
74259;SDS011;62630;55.874;37.516;2023-02-17T03:33:18;8.45;;;4.90;;
74259;SDS011;62630;55.874;37.516;2023-02-17T03:35:46;8.57;;;5.38;;
74259;SDS011;62630;55.874;37.516;2023-02-17T03:38:12;9.07;;;5.05;;
74259;SDS011;62630;55.874;37.516;2023-02-17T03:40:37;7.15;;;4.80;;
74259;SDS011;62630;55.874;37.516;2023-02-17T03:43:03;7.72;;;4.95;;
74259;SDS011;62630;55.874;37.516;2023-02-17T03:45:30;8.20;;;5.10;;
74259;SDS011;62630;55.874;37.516;2023-02-17T03:47:55;9.02;;;4.82;;
74259;SDS011;62630;55.874;37.516;2023-02-17T03:50:21;9.38;;;5.75;;
74259;SDS011;62630;55.874;37.516;2023-02-17T03:52:47;8.95;;;5.05;;
74259;SDS011;62630;55.874;37.516;2023-02-17T03:55:16;7.97;;;5.10;;
74259;SDS011;62630;55.874;37.516;2023-02-17T03:57:42;8.38;;;5.50;;
74259;SDS011;62630;55.874;37.516;2023-02-17T04:00:08;10.23;;;5.55;;
74259;SDS011;62630;55.874;37.516;2023-02-17T04:02:34;7.43;;;4.85;;
74259;SDS011;62630;55.874;37.516;2023-02-17T04:04:59;10.15;;;5.32;;
74259;SDS011;62630;55.874;37.516;2023-02-17T04:07:25;8.70;;;4.22;;
74259;SDS011;62630;55.874;37.516;2023-02-17T04:09:50;7.40;;;4.50;;
74259;SDS011;62630;55.874;37.516;2023-02-17T04:12:16;8.25;;;4.50;;
74259;SDS011;62630;55.874;37.516;2023-02-17T04:14:42;11.15;;;5.00;;
74259;SDS011;62630;55.874;37.516;2023-02-17T04:17:08;7.40;;;4.65;;
74259;SDS011;62630;55.874;37.516;2023-02-17T04:19:34;8.10;;;5.22;;
74259;SDS011;62630;55.874;37.516;2023-02-17T04:21:59;7.47;;;4.85;;
74259;SDS011;62630;55.874;37.516;2023-02-17T04:24:25;8.25;;;5.30;;
74259;SDS011;62630;55.874;37.516;2023-02-17T04:26:50;7.95;;;5.13;;
74259;SDS011;62630;55.874;37.516;2023-02-17T04:29:16;9.45;;;4.45;;
74259;SDS011;62630;55.874;37.516;2023-02-17T04:31:42;8.68;;;4.50;;
74259;SDS011;62630;55.874;37.516;2023-02-17T04:34:08;8.10;;;4.47;;
74259;SDS011;62630;55.874;37.516;2023-02-17T04:36:34;8.07;;;4.65;;
74259;SDS011;62630;55.874;37.516;2023-02-17T04:38:59;7.82;;;4.72;;
74259;SDS011;62630;55.874;37.516;2023-02-17T04:41:25;6.97;;;4.47;;
74259;SDS011;62630;55.874;37.516;2023-02-17T04:43:50;9.85;;;4.68;;
74259;SDS011;62630;55.874;37.516;2023-02-17T04:46:19;8.40;;;5.25;;
74259;SDS011;62630;55.874;37.516;2023-02-17T04:48:44;7.25;;;4.13;;
74259;SDS011;62630;55.874;37.516;2023-02-17T04:51:10;9.82;;;5.43;;
74259;SDS011;62630;55.874;37.516;2023-02-17T04:53:35;7.13;;;4.60;;
74259;SDS011;62630;55.874;37.516;2023-02-17T04:56:01;8.57;;;5.03;;
74259;SDS011;62630;55.874;37.516;2023-02-17T04:58:27;7.97;;;4.68;;
74259;SDS011;62630;55.874;37.516;2023-02-17T05:00:52;10.52;;;5.63;;
74259;SDS011;62630;55.874;37.516;2023-02-17T05:03:18;11.75;;;6.80;;
74259;SDS011;62630;55.874;37.516;2023-02-17T05:05:44;9.50;;;5.13;;
74259;SDS011;62630;55.874;37.516;2023-02-17T05:08:12;8.00;;;4.57;;
74259;SDS011;62630;55.874;37.516;2023-02-17T05:10:40;7.18;;;4.65;;
74259;SDS011;62630;55.874;37.516;2023-02-17T05:13:12;9.55;;;5.43;;
74259;SDS011;62630;55.874;37.516;2023-02-17T05:15:44;9.02;;;5.25;;
74259;SDS011;62630;55.874;37.516;2023-02-17T05:18:13;9.07;;;5.03;;
74259;SDS011;62630;55.874;37.516;2023-02-17T05:20:38;8.23;;;5.22;;
74259;SDS011;62630;55.874;37.516;2023-02-17T05:23:04;7.50;;;4.18;;
74259;SDS011;62630;55.874;37.516;2023-02-17T05:25:33;7.18;;;5.03;;
74259;SDS011;62630;55.874;37.516;2023-02-17T05:27:59;8.30;;;4.65;;
74259;SDS011;62630;55.874;37.516;2023-02-17T05:30:26;8.63;;;4.72;;
74259;SDS011;62630;55.874;37.516;2023-02-17T05:32:52;9.35;;;5.20;;
74259;SDS011;62630;55.874;37.516;2023-02-17T05:35:18;7.00;;;4.70;;
74259;SDS011;62630;55.874;37.516;2023-02-17T05:37:43;7.30;;;4.82;;
74259;SDS011;62630;55.874;37.516;2023-02-17T05:40:10;8.45;;;4.75;;
74259;SDS011;62630;55.874;37.516;2023-02-17T05:42:36;7.32;;;4.60;;
74259;SDS011;62630;55.874;37.516;2023-02-17T05:45:02;8.68;;;4.68;;
74259;SDS011;62630;55.874;37.516;2023-02-17T05:47:30;7.40;;;4.60;;
74259;SDS011;62630;55.874;37.516;2023-02-17T05:49:56;8.23;;;4.85;;
74259;SDS011;62630;55.874;37.516;2023-02-17T05:52:21;9.63;;;5.13;;
74259;SDS011;62630;55.874;37.516;2023-02-17T05:54:47;8.65;;;5.75;;
74259;SDS011;62630;55.874;37.516;2023-02-17T05:57:12;14.00;;;5.80;;
74259;SDS011;62630;55.874;37.516;2023-02-17T05:59:38;7.95;;;5.15;;
74259;SDS011;62630;55.874;37.516;2023-02-17T06:02:04;8.43;;;5.10;;
74259;SDS011;62630;55.874;37.516;2023-02-17T06:04:29;9.30;;;5.38;;
74259;SDS011;62630;55.874;37.516;2023-02-17T06:06:55;10.55;;;6.38;;
74259;SDS011;62630;55.874;37.516;2023-02-17T06:09:22;9.75;;;5.75;;
74259;SDS011;62630;55.874;37.516;2023-02-17T06:11:47;8.95;;;5.00;;
74259;SDS011;62630;55.874;37.516;2023-02-17T06:14:16;11.70;;;6.32;;
74259;SDS011;62630;55.874;37.516;2023-02-17T06:16:42;8.90;;;5.20;;
74259;SDS011;62630;55.874;37.516;2023-02-17T06:19:10;8.95;;;5.30;;
74259;SDS011;62630;55.874;37.516;2023-02-17T06:21:35;7.95;;;4.95;;
74259;SDS011;62630;55.874;37.516;2023-02-17T06:24:07;10.02;;;6.22;;
74259;SDS011;62630;55.874;37.516;2023-02-17T06:26:38;10.10;;;5.47;;
74259;SDS011;62630;55.874;37.516;2023-02-17T06:29:04;9.75;;;5.90;;
74259;SDS011;62630;55.874;37.516;2023-02-17T06:31:30;10.15;;;6.07;;
74259;SDS011;62630;55.874;37.516;2023-02-17T06:33:55;11.63;;;6.55;;
74259;SDS011;62630;55.874;37.516;2023-02-17T06:36:21;8.93;;;6.07;;
74259;SDS011;62630;55.874;37.516;2023-02-17T06:38:47;11.50;;;5.88;;
74259;SDS011;62630;55.874;37.516;2023-02-17T06:41:13;10.23;;;5.93;;
74259;SDS011;62630;55.874;37.516;2023-02-17T06:43:38;9.32;;;5.63;;
74259;SDS011;62630;55.874;37.516;2023-02-17T06:46:04;12.20;;;7.10;;
74259;SDS011;62630;55.874;37.516;2023-02-17T06:48:30;12.38;;;6.63;;
74259;SDS011;62630;55.874;37.516;2023-02-17T06:50:57;14.40;;;6.95;;
74259;SDS011;62630;55.874;37.516;2023-02-17T06:53:24;10.13;;;6.03;;
74259;SDS011;62630;55.874;37.516;2023-02-17T06:55:49;10.95;;;5.72;;
74259;SDS011;62630;55.874;37.516;2023-02-17T06:58:15;11.77;;;6.35;;
74259;SDS011;62630;55.874;37.516;2023-02-17T07:00:42;13.48;;;6.60;;
74259;SDS011;62630;55.874;37.516;2023-02-17T07:03:07;9.25;;;6.18;;
74259;SDS011;62630;55.874;37.516;2023-02-17T07:05:34;12.48;;;6.93;;
74259;SDS011;62630;55.874;37.516;2023-02-17T07:08:00;12.35;;;6.60;;
74259;SDS011;62630;55.874;37.516;2023-02-17T07:10:26;12.50;;;6.60;;
74259;SDS011;62630;55.874;37.516;2023-02-17T07:12:51;11.35;;;6.63;;
74259;SDS011;62630;55.874;37.516;2023-02-17T07:15:17;12.30;;;6.10;;
74259;SDS011;62630;55.874;37.516;2023-02-17T07:17:43;12.05;;;6.68;;
74259;SDS011;62630;55.874;37.516;2023-02-17T07:20:08;11.90;;;6.75;;
74259;SDS011;62630;55.874;37.516;2023-02-17T07:22:34;10.27;;;5.72;;
74259;SDS011;62630;55.874;37.516;2023-02-17T07:25:00;10.65;;;6.13;;
74259;SDS011;62630;55.874;37.516;2023-02-17T07:27:26;14.88;;;6.40;;
74259;SDS011;62630;55.874;37.516;2023-02-17T07:29:51;9.88;;;6.30;;
74259;SDS011;62630;55.874;37.516;2023-02-17T07:32:17;13.10;;;6.97;;
74259;SDS011;62630;55.874;37.516;2023-02-17T07:34:51;13.68;;;7.43;;
74259;SDS011;62630;55.874;37.516;2023-02-17T07:37:35;12.20;;;6.70;;
74259;SDS011;62630;55.874;37.516;2023-02-17T07:40:12;12.85;;;6.35;;
74259;SDS011;62630;55.874;37.516;2023-02-17T07:42:38;13.43;;;6.53;;
74259;SDS011;62630;55.874;37.516;2023-02-17T07:45:04;13.50;;;6.35;;
74259;SDS011;62630;55.874;37.516;2023-02-17T07:47:31;12.75;;;5.90;;
74259;SDS011;62630;55.874;37.516;2023-02-17T07:49:57;14.48;;;7.07;;
74259;SDS011;62630;55.874;37.516;2023-02-17T07:52:22;10.82;;;6.57;;
74259;SDS011;62630;55.874;37.516;2023-02-17T07:54:48;14.57;;;7.15;;
74259;SDS011;62630;55.874;37.516;2023-02-17T07:57:13;15.25;;;7.20;;
74259;SDS011;62630;55.874;37.516;2023-02-17T07:59:39;11.35;;;7.00;;
74259;SDS011;62630;55.874;37.516;2023-02-17T08:02:05;10.82;;;6.53;;
74259;SDS011;62630;55.874;37.516;2023-02-17T08:04:30;12.20;;;6.82;;
74259;SDS011;62630;55.874;37.516;2023-02-17T08:06:56;10.70;;;6.53;;
74259;SDS011;62630;55.874;37.516;2023-02-17T08:09:22;14.65;;;6.18;;
74259;SDS011;62630;55.874;37.516;2023-02-17T08:12:09;13.10;;;6.00;;
74259;SDS011;62630;55.874;37.516;2023-02-17T08:14:59;11.68;;;6.43;;
74259;SDS011;62630;55.874;37.516;2023-02-17T08:17:26;10.70;;;5.72;;
74259;SDS011;62630;55.874;37.516;2023-02-17T08:19:53;13.50;;;7.10;;
74259;SDS011;62630;55.874;37.516;2023-02-17T08:22:19;12.20;;;5.97;;
74259;SDS011;62630;55.874;37.516;2023-02-17T08:24:44;9.05;;;5.13;;
74259;SDS011;62630;55.874;37.516;2023-02-17T08:27:11;9.95;;;6.03;;
74259;SDS011;62630;55.874;37.516;2023-02-17T08:29:38;12.27;;;6.97;;
74259;SDS011;62630;55.874;37.516;2023-02-17T08:32:04;7.97;;;5.50;;
74259;SDS011;62630;55.874;37.516;2023-02-17T08:34:29;11.27;;;5.70;;
74259;SDS011;62630;55.874;37.516;2023-02-17T08:36:58;10.75;;;5.70;;
74259;SDS011;62630;55.874;37.516;2023-02-17T08:39:27;10.27;;;6.20;;
74259;SDS011;62630;55.874;37.516;2023-02-17T08:41:53;11.48;;;6.15;;
74259;SDS011;62630;55.874;37.516;2023-02-17T08:44:19;13.18;;;6.88;;
74259;SDS011;62630;55.874;37.516;2023-02-17T08:46:46;12.60;;;6.25;;
74259;SDS011;62630;55.874;37.516;2023-02-17T08:49:18;10.38;;;5.80;;
74259;SDS011;62630;55.874;37.516;2023-02-17T08:51:47;10.20;;;5.78;;
74259;SDS011;62630;55.874;37.516;2023-02-17T08:54:13;11.90;;;6.78;;
74259;SDS011;62630;55.874;37.516;2023-02-17T08:56:39;9.52;;;5.28;;
74259;SDS011;62630;55.874;37.516;2023-02-17T08:59:06;13.65;;;6.53;;
74259;SDS011;62630;55.874;37.516;2023-02-17T09:01:33;8.82;;;5.40;;
74259;SDS011;62630;55.874;37.516;2023-02-17T09:04:00;9.30;;;5.22;;
74259;SDS011;62630;55.874;37.516;2023-02-17T09:06:34;12.05;;;7.30;;
74259;SDS011;62630;55.874;37.516;2023-02-17T09:09:03;12.63;;;6.93;;
74259;SDS011;62630;55.874;37.516;2023-02-17T09:11:31;11.55;;;5.72;;
74259;SDS011;62630;55.874;37.516;2023-02-17T09:13:56;8.82;;;5.57;;
74259;SDS011;62630;55.874;37.516;2023-02-17T09:16:22;12.15;;;6.22;;
74259;SDS011;62630;55.874;37.516;2023-02-17T09:18:50;12.77;;;7.28;;
74259;SDS011;62630;55.874;37.516;2023-02-17T09:21:16;12.35;;;6.43;;
74259;SDS011;62630;55.874;37.516;2023-02-17T09:23:42;12.95;;;6.28;;
74259;SDS011;62630;55.874;37.516;2023-02-17T09:26:09;11.70;;;6.65;;
74259;SDS011;62630;55.874;37.516;2023-02-17T09:28:37;15.25;;;5.97;;
74259;SDS011;62630;55.874;37.516;2023-02-17T09:33:39;13.23;;;7.13;;
74259;SDS011;62630;55.874;37.516;2023-02-17T09:36:06;13.15;;;6.50;;
74259;SDS011;62630;55.874;37.516;2023-02-17T09:38:32;11.32;;;6.25;;
74259;SDS011;62630;55.874;37.516;2023-02-17T09:40:59;12.73;;;6.20;;
74259;SDS011;62630;55.874;37.516;2023-02-17T09:43:33;10.93;;;6.22;;
74259;SDS011;62630;55.874;37.516;2023-02-17T09:46:00;10.73;;;6.32;;
74259;SDS011;62630;55.874;37.516;2023-02-17T09:48:31;13.32;;;5.88;;
74259;SDS011;62630;55.874;37.516;2023-02-17T09:51:01;10.90;;;6.30;;
74259;SDS011;62630;55.874;37.516;2023-02-17T09:53:43;13.60;;;6.68;;
74259;SDS011;62630;55.874;37.516;2023-02-17T09:56:28;12.68;;;6.38;;
74259;SDS011;62630;55.874;37.516;2023-02-17T09:58:58;10.77;;;5.70;;
74259;SDS011;62630;55.874;37.516;2023-02-17T10:01:29;10.57;;;5.93;;
74259;SDS011;62630;55.874;37.516;2023-02-17T10:04:10;11.50;;;6.30;;
74259;SDS011;62630;55.874;37.516;2023-02-17T10:06:45;10.02;;;5.90;;
74259;SDS011;62630;55.874;37.516;2023-02-17T10:11:51;10.45;;;6.82;;
74259;SDS011;62630;55.874;37.516;2023-02-17T10:17:04;11.63;;;6.30;;
74259;SDS011;62630;55.874;37.516;2023-02-17T10:19:40;12.23;;;6.93;;
74259;SDS011;62630;55.874;37.516;2023-02-17T10:22:13;10.45;;;6.03;;
74259;SDS011;62630;55.874;37.516;2023-02-17T10:24:42;13.07;;;6.70;;
74259;SDS011;62630;55.874;37.516;2023-02-17T10:29:54;11.77;;;5.95;;
74259;SDS011;62630;55.874;37.516;2023-02-17T10:32:44;11.27;;;6.78;;
74259;SDS011;62630;55.874;37.516;2023-02-17T10:35:22;11.30;;;6.38;;
74259;SDS011;62630;55.874;37.516;2023-02-17T10:37:59;14.30;;;6.95;;
74259;SDS011;62630;55.874;37.516;2023-02-17T10:40:39;11.88;;;7.07;;
74259;SDS011;62630;55.874;37.516;2023-02-17T10:43:07;13.27;;;6.55;;
74259;SDS011;62630;55.874;37.516;2023-02-17T10:45:36;13.48;;;7.30;;
74259;SDS011;62630;55.874;37.516;2023-02-17T10:48:11;13.13;;;7.57;;
74259;SDS011;62630;55.874;37.516;2023-02-17T10:50:42;12.43;;;7.45;;
74259;SDS011;62630;55.874;37.516;2023-02-17T10:56:03;11.95;;;7.15;;
74259;SDS011;62630;55.874;37.516;2023-02-17T11:01:11;13.13;;;6.78;;
74259;SDS011;62630;55.874;37.516;2023-02-17T11:03:38;13.05;;;7.30;;
74259;SDS011;62630;55.874;37.516;2023-02-17T11:09:03;11.52;;;6.90;;
74259;SDS011;62630;55.874;37.516;2023-02-17T11:11:36;15.00;;;7.30;;
74259;SDS011;62630;55.874;37.516;2023-02-17T11:19:02;17.45;;;7.40;;
74259;SDS011;62630;55.874;37.516;2023-02-17T11:21:30;16.88;;;8.05;;
74259;SDS011;62630;55.874;37.516;2023-02-17T11:23:58;17.83;;;7.97;;
74259;SDS011;62630;55.874;37.516;2023-02-17T11:26:25;14.82;;;8.13;;
74259;SDS011;62630;55.874;37.516;2023-02-17T11:28:54;17.25;;;7.95;;
74259;SDS011;62630;55.874;37.516;2023-02-17T11:31:41;13.93;;;7.30;;
74259;SDS011;62630;55.874;37.516;2023-02-17T11:34:19;12.60;;;7.50;;
74259;SDS011;62630;55.874;37.516;2023-02-17T11:36:55;18.70;;;8.25;;
74259;SDS011;62630;55.874;37.516;2023-02-17T11:39:40;17.60;;;9.07;;
74259;SDS011;62630;55.874;37.516;2023-02-17T11:42:29;15.55;;;8.00;;
74259;SDS011;62630;55.874;37.516;2023-02-17T11:44:57;10.98;;;7.20;;
74259;SDS011;62630;55.874;37.516;2023-02-17T11:47:47;14.30;;;8.60;;
74259;SDS011;62630;55.874;37.516;2023-02-17T11:50:30;12.88;;;7.22;;
74259;SDS011;62630;55.874;37.516;2023-02-17T11:58:22;18.95;;;8.93;;
74259;SDS011;62630;55.874;37.516;2023-02-17T12:01:34;13.52;;;8.32;;
74259;SDS011;62630;55.874;37.516;2023-02-17T12:04:25;13.30;;;7.43;;
74259;SDS011;62630;55.874;37.516;2023-02-17T12:07:21;13.45;;;7.90;;
74259;SDS011;62630;55.874;37.516;2023-02-17T12:09:54;17.50;;;8.63;;
74259;SDS011;62630;55.874;37.516;2023-02-17T12:23:54;15.73;;;8.23;;
74259;SDS011;62630;55.874;37.516;2023-02-17T12:31:51;21.70;;;9.25;;
74259;SDS011;62630;55.874;37.516;2023-02-17T12:37:19;16.70;;;9.95;;
74259;SDS011;62630;55.874;37.516;2023-02-17T12:39:55;18.98;;;9.38;;
74259;SDS011;62630;55.874;37.516;2023-02-17T12:42:29;20.98;;;9.82;;
74259;SDS011;62630;55.874;37.516;2023-02-17T12:45:04;15.88;;;8.35;;
74259;SDS011;62630;55.874;37.516;2023-02-17T12:47:52;14.38;;;7.18;;
74259;SDS011;62630;55.874;37.516;2023-02-17T12:50:24;13.55;;;7.90;;
74259;SDS011;62630;55.874;37.516;2023-02-17T12:53:02;12.80;;;6.97;;
74259;SDS011;62630;55.874;37.516;2023-02-17T12:55:43;23.08;;;7.35;;
74259;SDS011;62630;55.874;37.516;2023-02-17T12:58:15;10.27;;;6.45;;
74259;SDS011;62630;55.874;37.516;2023-02-17T13:03:28;13.70;;;6.40;;
74259;SDS011;62630;55.874;37.516;2023-02-17T13:06:37;14.38;;;7.13;;
74259;SDS011;62630;55.874;37.516;2023-02-17T13:09:20;11.77;;;7.32;;
74259;SDS011;62630;55.874;37.516;2023-02-17T13:12:05;14.10;;;7.47;;
74259;SDS011;62630;55.874;37.516;2023-02-17T13:15:24;15.32;;;8.73;;
74259;SDS011;62630;55.874;37.516;2023-02-17T13:17:55;14.35;;;8.38;;
74259;SDS011;62630;55.874;37.516;2023-02-17T13:20:37;16.00;;;8.90;;
74259;SDS011;62630;55.874;37.516;2023-02-17T13:23:13;14.95;;;9.05;;
74259;SDS011;62630;55.874;37.516;2023-02-17T13:26:00;24.17;;;10.20;;
74259;SDS011;62630;55.874;37.516;2023-02-17T13:28:48;20.25;;;10.00;;
74259;SDS011;62630;55.874;37.516;2023-02-17T13:31:25;20.77;;;10.20;;
74259;SDS011;62630;55.874;37.516;2023-02-17T13:33:57;20.60;;;10.77;;
74259;SDS011;62630;55.874;37.516;2023-02-17T13:39:37;18.42;;;10.55;;
74259;SDS011;62630;55.874;37.516;2023-02-17T13:41:57;19.48;;;10.50;;
74259;SDS011;62630;55.874;37.516;2023-02-17T13:44:31;16.40;;;9.00;;
74259;SDS011;62630;55.874;37.516;2023-02-17T13:47:14;18.95;;;8.65;;
74259;SDS011;62630;55.874;37.516;2023-02-17T13:49:52;14.52;;;8.60;;
74259;SDS011;62630;55.874;37.516;2023-02-17T13:52:24;17.77;;;8.73;;
74259;SDS011;62630;55.874;37.516;2023-02-17T13:54:54;15.20;;;8.70;;
74259;SDS011;62630;55.874;37.516;2023-02-17T13:57:28;16.58;;;9.80;;
74259;SDS011;62630;55.874;37.516;2023-02-17T14:02:57;21.75;;;8.48;;
74259;SDS011;62630;55.874;37.516;2023-02-17T14:08:04;18.75;;;9.25;;
74259;SDS011;62630;55.874;37.516;2023-02-17T14:10:39;18.00;;;9.18;;
74259;SDS011;62630;55.874;37.516;2023-02-17T14:13:07;17.35;;;9.77;;
74259;SDS011;62630;55.874;37.516;2023-02-17T14:15:34;14.18;;;8.90;;
74259;SDS011;62630;55.874;37.516;2023-02-17T14:18:10;15.32;;;9.95;;
74259;SDS011;62630;55.874;37.516;2023-02-17T14:20:39;15.40;;;9.43;;
74259;SDS011;62630;55.874;37.516;2023-02-17T14:23:09;16.27;;;9.23;;
74259;SDS011;62630;55.874;37.516;2023-02-17T14:25:38;18.00;;;9.90;;
74259;SDS011;62630;55.874;37.516;2023-02-17T14:28:21;17.52;;;10.55;;
74259;SDS011;62630;55.874;37.516;2023-02-17T14:30:49;16.65;;;9.73;;
74259;SDS011;62630;55.874;37.516;2023-02-17T14:38:40;18.05;;;7.65;;
74259;SDS011;62630;55.874;37.516;2023-02-17T14:41:07;16.30;;;8.70;;
74259;SDS011;62630;55.874;37.516;2023-02-17T14:43:33;17.73;;;8.45;;
74259;SDS011;62630;55.874;37.516;2023-02-17T14:46:02;16.02;;;8.70;;
74259;SDS011;62630;55.874;37.516;2023-02-17T14:48:28;16.45;;;8.25;;
74259;SDS011;62630;55.874;37.516;2023-02-17T14:50:54;17.35;;;9.85;;
74259;SDS011;62630;55.874;37.516;2023-02-17T14:53:25;19.45;;;10.70;;
74259;SDS011;62630;55.874;37.516;2023-02-17T14:56:01;18.15;;;9.75;;
74259;SDS011;62630;55.874;37.516;2023-02-17T14:58:31;20.35;;;10.00;;
74259;SDS011;62630;55.874;37.516;2023-02-17T15:00:57;16.00;;;9.68;;
74259;SDS011;62630;55.874;37.516;2023-02-17T15:03:23;20.58;;;9.88;;
74259;SDS011;62630;55.874;37.516;2023-02-17T15:05:49;20.92;;;10.90;;
74259;SDS011;62630;55.874;37.516;2023-02-17T15:08:16;19.85;;;10.07;;
74259;SDS011;62630;55.874;37.516;2023-02-17T15:10:47;17.02;;;9.25;;
74259;SDS011;62630;55.874;37.516;2023-02-17T15:13:18;18.10;;;9.18;;
74259;SDS011;62630;55.874;37.516;2023-02-17T15:15:45;68.95;;;23.65;;
74259;SDS011;62630;55.874;37.516;2023-02-17T15:18:15;53.05;;;19.77;;
74259;SDS011;62630;55.874;37.516;2023-02-17T15:20:46;32.65;;;15.93;;
74259;SDS011;62630;55.874;37.516;2023-02-17T15:23:20;13.73;;;8.48;;
74259;SDS011;62630;55.874;37.516;2023-02-17T15:25:47;23.20;;;9.98;;
74259;SDS011;62630;55.874;37.516;2023-02-17T15:28:19;17.23;;;9.75;;
74259;SDS011;62630;55.874;37.516;2023-02-17T15:30:49;16.17;;;10.48;;
74259;SDS011;62630;55.874;37.516;2023-02-17T15:33:17;18.35;;;10.95;;
74259;SDS011;62630;55.874;37.516;2023-02-17T15:35:48;16.65;;;10.50;;
74259;SDS011;62630;55.874;37.516;2023-02-17T15:38:17;20.83;;;10.90;;
74259;SDS011;62630;55.874;37.516;2023-02-17T15:40:43;15.10;;;9.10;;
74259;SDS011;62630;55.874;37.516;2023-02-17T15:43:12;19.90;;;10.57;;
74259;SDS011;62630;55.874;37.516;2023-02-17T15:45:41;20.80;;;11.32;;
74259;SDS011;62630;55.874;37.516;2023-02-17T15:48:13;23.23;;;12.10;;
74259;SDS011;62630;55.874;37.516;2023-02-17T15:50:43;19.30;;;10.68;;
74259;SDS011;62630;55.874;37.516;2023-02-17T15:53:11;19.05;;;10.40;;
74259;SDS011;62630;55.874;37.516;2023-02-17T15:55:37;17.77;;;9.23;;
74259;SDS011;62630;55.874;37.516;2023-02-17T15:58:03;17.85;;;9.73;;
74259;SDS011;62630;55.874;37.516;2023-02-17T16:00:32;15.50;;;9.75;;
74259;SDS011;62630;55.874;37.516;2023-02-17T16:02:59;17.88;;;8.80;;
74259;SDS011;62630;55.874;37.516;2023-02-17T16:05:26;16.65;;;8.85;;
74259;SDS011;62630;55.874;37.516;2023-02-17T16:07:53;16.80;;;8.20;;
74259;SDS011;62630;55.874;37.516;2023-02-17T16:10:23;19.13;;;8.05;;